createdAt,value
2023-02-26T00:00:04.665Z,3.80
2023-02-26T00:03:13.960Z,3.80
2023-02-26T00:06:03.354Z,3.80
2023-02-26T00:08:52.883Z,3.80
2023-02-26T00:11:42.874Z,3.80
2023-02-26T00:14:32.886Z,3.80
2023-02-26T00:17:38.631Z,3.80
2023-02-26T00:20:28.489Z,3.80
2023-02-26T00:23:18.674Z,3.80
2023-02-26T00:26:07.946Z,3.80
2023-02-26T00:28:58.364Z,3.80
2023-02-26T00:31:48.604Z,3.80
2023-02-26T00:34:40.573Z,3.80
2023-02-26T00:37:44.628Z,3.80
2023-02-26T00:40:42.848Z,3.80
2023-02-26T00:43:32.903Z,3.80
2023-02-26T00:46:33.269Z,3.80
2023-02-26T00:49:40.532Z,3.90
2023-02-26T00:52:37.893Z,3.80
2023-02-26T00:55:28.472Z,3.80
2023-02-26T00:58:18.484Z,3.80
2023-02-26T01:01:09.318Z,3.80
2023-02-26T01:03:59.811Z,3.80
2023-02-26T01:06:54.793Z,3.80
2023-02-26T01:09:44.918Z,3.80
2023-02-26T01:12:35.576Z,3.80
2023-02-26T01:15:25.716Z,3.80
2023-02-26T01:18:19.428Z,3.80
2023-02-26T01:21:14.552Z,3.80
2023-02-26T01:24:10.048Z,3.80
2023-02-26T01:26:59.706Z,3.80
2023-02-26T01:29:49.784Z,3.70
2023-02-26T01:32:46.108Z,3.70
2023-02-26T01:35:45.263Z,3.80
2023-02-26T01:38:45.094Z,3.70
2023-02-26T01:41:40.578Z,3.70
2023-02-26T01:44:40.797Z,3.70
2023-02-26T01:47:41.779Z,3.70
2023-02-26T01:50:36.565Z,3.70
2023-02-26T01:53:28.501Z,3.70
2023-02-26T01:56:20.613Z,3.70
2023-02-26T01:59:16.223Z,3.70
2023-02-26T02:02:09.114Z,3.70
2023-02-26T02:04:58.985Z,3.70
2023-02-26T02:07:48.403Z,3.70
2023-02-26T02:10:37.675Z,3.70
2023-02-26T02:13:38.904Z,3.70
2023-02-26T02:16:39.119Z,3.70
2023-02-26T02:20:06.308Z,3.70
2023-02-26T02:23:14.115Z,3.70
2023-02-26T02:26:41.928Z,3.70
2023-02-26T02:30:22.837Z,3.70
2023-02-26T02:33:17.516Z,3.70
2023-02-26T02:36:13.432Z,3.70
2023-02-26T02:39:09.024Z,3.70
2023-02-26T02:42:02.949Z,3.70
2023-02-26T02:44:58.277Z,3.70
2023-02-26T02:47:52.182Z,3.70
2023-02-26T02:50:48.001Z,3.70
2023-02-26T02:53:42.217Z,3.70
2023-02-26T02:56:39.040Z,3.60
2023-02-26T02:59:33.784Z,3.60
2023-02-26T03:02:31.799Z,3.60
2023-02-26T03:05:21.280Z,3.60
2023-02-26T03:08:17.015Z,3.60
2023-02-26T03:11:09.459Z,3.60
2023-02-26T03:14:00.556Z,3.60
2023-02-26T03:17:18.291Z,3.60
2023-02-26T03:20:20.443Z,3.60
2023-02-26T03:23:21.231Z,3.60
2023-02-26T03:26:16.887Z,3.60
2023-02-26T03:29:13.455Z,3.60
2023-02-26T03:32:09.632Z,3.70
2023-02-26T03:35:06.419Z,3.70
2023-02-26T03:37:59.648Z,3.70
2023-02-26T03:40:58.306Z,3.70
2023-02-26T03:43:53.317Z,3.60
2023-02-26T03:46:47.743Z,3.70
2023-02-26T03:49:43.898Z,3.70
2023-02-26T03:52:39.098Z,3.70
2023-02-26T03:55:43.316Z,3.60
2023-02-26T03:58:48.049Z,3.70
2023-02-26T04:01:59.445Z,3.60
2023-02-26T04:04:54.116Z,3.60
2023-02-26T04:07:44.849Z,3.60
2023-02-26T04:10:43.144Z,3.50
2023-02-26T04:13:32.549Z,3.60
2023-02-26T04:16:24.277Z,3.60
2023-02-26T04:19:14.340Z,3.60
2023-02-26T04:22:04.969Z,3.60
2023-02-26T04:24:54.292Z,3.60
2023-02-26T04:27:44.431Z,3.60
2023-02-26T04:30:34.026Z,3.60
2023-02-26T04:33:26.958Z,3.60
2023-02-26T04:36:16.250Z,3.60
2023-02-26T04:39:05.785Z,3.60
2023-02-26T04:41:55.224Z,3.60
2023-02-26T04:44:44.501Z,3.60
2023-02-26T04:47:35.487Z,3.70
2023-02-26T04:50:26.602Z,3.70
2023-02-26T04:53:16.717Z,3.70
2023-02-26T04:56:07.871Z,3.70
2023-02-26T04:58:57.333Z,3.70
2023-02-26T05:01:50.199Z,3.60
2023-02-26T05:04:39.671Z,3.60
2023-02-26T05:07:31.464Z,3.60
2023-02-26T05:10:21.031Z,3.60
2023-02-26T05:13:10.387Z,3.70
2023-02-26T05:16:02.501Z,3.60
2023-02-26T05:18:51.940Z,3.70
2023-02-26T05:21:41.411Z,3.60
2023-02-26T05:24:32.217Z,3.60
2023-02-26T05:27:22.997Z,3.70
2023-02-26T05:30:17.048Z,3.70
2023-02-26T05:33:06.411Z,3.60
2023-02-26T05:35:57.554Z,3.60
2023-02-26T05:38:46.870Z,3.60
2023-02-26T05:41:37.653Z,3.60
2023-02-26T05:44:28.359Z,3.60
2023-02-26T05:47:17.809Z,3.60
2023-02-26T05:50:08.433Z,3.60
2023-02-26T05:52:58.011Z,3.60
2023-02-26T05:55:47.322Z,3.60
2023-02-26T05:58:38.113Z,3.60
2023-02-26T06:01:27.439Z,3.60
2023-02-26T06:04:16.812Z,3.60
2023-02-26T06:07:06.160Z,3.60
2023-02-26T06:09:55.674Z,3.60
2023-02-26T06:12:45.283Z,3.60
2023-02-26T06:15:36.075Z,3.60
2023-02-26T06:18:25.420Z,3.60
2023-02-26T06:21:14.986Z,3.60
2023-02-26T06:24:04.435Z,3.60
2023-02-26T06:26:53.772Z,3.70
2023-02-26T06:29:43.116Z,3.70
2023-02-26T06:32:33.909Z,3.70
2023-02-26T06:35:23.290Z,3.70
2023-02-26T06:38:12.683Z,3.70
2023-02-26T06:41:02.032Z,3.70
2023-02-26T06:43:51.319Z,3.80
2023-02-26T06:46:40.673Z,3.70
2023-02-26T06:49:31.425Z,3.70
2023-02-26T06:52:20.932Z,3.80
2023-02-26T06:55:11.948Z,3.80
2023-02-26T06:58:01.375Z,3.80
2023-02-26T07:00:51.140Z,3.80
2023-02-26T07:03:40.454Z,3.80
2023-02-26T07:06:31.162Z,3.80
2023-02-26T07:09:21.581Z,3.80
2023-02-26T07:12:11.470Z,3.80
2023-02-26T07:15:00.795Z,3.80
2023-02-26T07:17:50.102Z,3.80
2023-02-26T07:20:39.553Z,3.80
2023-02-26T07:23:30.293Z,3.80
2023-02-26T07:26:19.732Z,3.80
2023-02-26T07:29:09.352Z,3.80
2023-02-26T07:31:58.749Z,3.80
2023-02-26T07:34:48.197Z,3.80
2023-02-26T07:37:37.706Z,3.90
2023-02-26T07:40:28.492Z,3.90
2023-02-26T07:43:18.045Z,3.90
2023-02-26T07:46:07.483Z,3.90
2023-02-26T07:48:57.209Z,3.90
2023-02-26T07:51:46.813Z,3.90
2023-02-26T07:54:36.482Z,4.00
2023-02-26T07:57:27.240Z,4.00
2023-02-26T08:00:18.608Z,4.00
2023-02-26T08:03:07.956Z,4.10
2023-02-26T08:05:58.857Z,4.10
2023-02-26T08:08:48.488Z,4.10
2023-02-26T08:11:40.425Z,4.10
2023-02-26T08:14:31.148Z,4.20
2023-02-26T08:17:20.471Z,4.10
2023-02-26T08:20:14.408Z,4.20
2023-02-26T08:23:03.837Z,4.20
2023-02-26T08:25:53.246Z,4.20
2023-02-26T08:28:42.614Z,4.20
2023-02-26T08:31:34.677Z,4.20
2023-02-26T08:34:24.549Z,4.30
2023-02-26T08:37:14.406Z,4.30
2023-02-26T08:40:04.524Z,4.30
2023-02-26T08:42:54.292Z,4.40
2023-02-26T08:45:43.853Z,4.40
2023-02-26T08:48:34.492Z,4.40
2023-02-26T08:51:24.386Z,4.50
2023-02-26T08:54:14.017Z,4.50
2023-02-26T08:57:03.579Z,4.50
2023-02-26T08:59:52.887Z,4.50
2023-02-26T09:02:42.894Z,4.50
2023-02-26T09:05:33.652Z,4.60
2023-02-26T09:08:22.971Z,4.60
2023-02-26T09:11:12.388Z,4.60
2023-02-26T09:14:03.440Z,4.60
2023-02-26T09:16:52.850Z,4.60
2023-02-26T09:19:42.148Z,4.60
2023-02-26T09:22:32.864Z,4.60
2023-02-26T09:25:22.205Z,4.60
2023-02-26T09:28:11.608Z,4.50
2023-02-26T09:31:00.962Z,4.50
2023-02-26T09:33:50.308Z,4.60
2023-02-26T09:36:39.984Z,4.50
2023-02-26T09:39:30.743Z,4.60
2023-02-26T09:42:42.693Z,4.60
2023-02-26T09:45:35.972Z,4.60
2023-02-26T09:48:27.081Z,4.60
2023-02-26T09:51:22.543Z,4.60
2023-02-26T09:54:21.357Z,4.60
2023-02-26T09:57:25.613Z,4.60
2023-02-26T10:00:25.893Z,4.60
2023-02-26T10:03:28.662Z,4.60
2023-02-26T10:06:25.536Z,4.60
2023-02-26T10:09:33.888Z,4.60
2023-02-26T10:12:28.187Z,4.60
2023-02-26T10:15:23.767Z,4.60
2023-02-26T10:18:20.379Z,4.70
2023-02-26T10:21:16.711Z,4.70
2023-02-26T10:24:12.647Z,4.70
2023-02-26T10:27:07.416Z,4.70
2023-02-26T10:30:04.050Z,4.80
2023-02-26T10:33:02.930Z,4.80
2023-02-26T10:36:01.062Z,4.80
2023-02-26T10:38:55.556Z,4.80
2023-02-26T10:41:45.328Z,4.90
2023-02-26T10:44:41.287Z,4.90
2023-02-26T10:47:44.674Z,4.90
2023-02-26T10:50:34.181Z,5.00
2023-02-26T10:53:24.748Z,5.00
2023-02-26T10:56:19.648Z,5.10
2023-02-26T10:59:09.077Z,5.20
2023-02-26T11:02:00.013Z,5.20
2023-02-26T11:04:59.294Z,5.30
2023-02-26T11:08:00.323Z,5.30
2023-02-26T11:10:54.145Z,5.40
2023-02-26T11:13:43.502Z,5.50
2023-02-26T11:16:33.582Z,5.60
2023-02-26T11:19:30.320Z,5.60
2023-02-26T11:22:23.084Z,5.60
2023-02-26T11:25:15.588Z,5.60
2023-02-26T11:28:08.564Z,5.60
2023-02-26T11:30:58.004Z,5.50
2023-02-26T11:33:51.701Z,5.50
2023-02-26T11:36:43.848Z,5.40
2023-02-26T11:39:39.750Z,5.40
2023-02-26T11:42:29.694Z,5.40
2023-02-26T11:45:21.548Z,5.40
2023-02-26T11:48:17.467Z,5.40
2023-02-26T11:51:08.800Z,5.50
2023-02-26T11:54:01.377Z,5.50
2023-02-26T11:56:52.249Z,5.50
2023-02-26T11:59:42.902Z,5.60
2023-02-26T12:02:36.413Z,5.70
2023-02-26T12:05:25.857Z,5.70
2023-02-26T12:08:27.304Z,5.70
2023-02-26T12:12:05.032Z,5.80
2023-02-26T12:15:17.959Z,5.80
2023-02-26T12:18:33.768Z,5.80
2023-02-26T12:21:44.446Z,5.80
2023-02-26T12:25:00.860Z,5.80
2023-02-26T12:28:29.076Z,5.80
2023-02-26T12:31:51.006Z,5.80
2023-02-26T12:35:13.014Z,5.80
2023-02-26T12:38:22.782Z,5.90
2023-02-26T12:41:34.263Z,5.90
2023-02-26T12:44:54.314Z,5.90
2023-02-26T12:47:58.101Z,6.00
2023-02-26T12:51:04.108Z,6.10
2023-02-26T12:54:31.867Z,6.20
2023-02-26T12:58:06.277Z,6.30
2023-02-26T13:01:16.032Z,6.30
2023-02-26T13:04:42.420Z,6.40
2023-02-26T13:07:58.648Z,6.30
2023-02-26T13:11:01.704Z,6.40
2023-02-26T13:14:13.014Z,6.40
2023-02-26T13:17:11.205Z,6.50
2023-02-26T13:20:05.124Z,6.50
2023-02-26T13:22:58.995Z,6.50
2023-02-26T13:25:55.974Z,6.50
2023-02-26T13:28:51.082Z,6.50
2023-02-26T13:31:46.983Z,6.50
2023-02-26T13:34:46.472Z,6.50
2023-02-26T13:37:41.025Z,6.50
2023-02-26T13:40:55.981Z,6.60
2023-02-26T13:44:25.756Z,6.60
2023-02-26T13:47:42.655Z,6.70
2023-02-26T13:50:46.052Z,6.70
2023-02-26T13:53:53.423Z,6.80
2023-02-26T13:56:54.866Z,6.80
2023-02-26T14:00:00.459Z,6.90
2023-02-26T14:02:54.729Z,6.90
2023-02-26T14:06:16.911Z,7.00
2023-02-26T14:09:38.446Z,7.00
2023-02-26T14:12:37.356Z,7.10
2023-02-26T14:15:43.459Z,7.10
2023-02-26T14:18:38.581Z,7.20
2023-02-26T14:21:52.256Z,7.20
2023-02-26T14:24:52.133Z,7.20
2023-02-26T14:27:44.251Z,7.30
2023-02-26T14:30:37.741Z,7.30
2023-02-26T14:33:33.395Z,7.30
2023-02-26T14:36:34.044Z,7.40
2023-02-26T14:39:33.584Z,7.40
2023-02-26T14:42:35.640Z,7.40
2023-02-26T14:45:32.136Z,7.50
2023-02-26T14:48:29.504Z,7.40
2023-02-26T14:51:29.484Z,7.40
2023-02-26T14:54:46.551Z,7.40
2023-02-26T14:57:47.826Z,7.40
2023-02-26T15:00:49.065Z,7.40
2023-02-26T15:04:17.598Z,7.30
2023-02-26T15:07:24.670Z,7.20
2023-02-26T15:10:40.151Z,7.20
2023-02-26T15:14:02.765Z,7.10
2023-02-26T15:17:07.146Z,7.10
2023-02-26T15:20:10.778Z,7.00
2023-02-26T15:23:21.848Z,6.80
2023-02-26T15:26:21.306Z,6.70
2023-02-26T15:29:14.665Z,6.60
2023-02-26T15:32:16.233Z,6.40
2023-02-26T15:35:16.716Z,6.30
2023-02-26T15:38:06.381Z,6.10
2023-02-26T15:41:00.694Z,6.00
2023-02-26T15:44:03.623Z,5.90
2023-02-26T15:46:59.296Z,5.80
2023-02-26T15:49:50.777Z,5.80
2023-02-26T15:52:40.133Z,5.80
2023-02-26T15:55:36.650Z,5.80
2023-02-26T15:58:36.965Z,5.80
2023-02-26T16:01:31.299Z,5.80
2023-02-26T16:04:23.037Z,5.90
2023-02-26T16:07:13.968Z,5.80
2023-02-26T16:10:09.328Z,5.80
2023-02-26T16:13:00.494Z,5.80
2023-02-26T16:15:50.260Z,5.80
2023-02-26T16:18:42.573Z,5.80
2023-02-26T16:21:36.893Z,5.70
2023-02-26T16:24:29.306Z,5.70
2023-02-26T16:27:18.728Z,5.60
2023-02-26T16:30:15.086Z,5.60
2023-02-26T16:33:07.430Z,5.50
2023-02-26T16:36:05.563Z,5.50
2023-02-26T16:39:14.671Z,5.40
2023-02-26T16:42:10.873Z,5.30
2023-02-26T16:45:17.490Z,5.30
2023-02-26T16:48:13.225Z,5.30
2023-02-26T16:51:09.006Z,5.20
2023-02-26T16:54:03.025Z,5.10
2023-02-26T16:56:59.333Z,5.10
2023-02-26T16:59:53.903Z,5.00
2023-02-26T17:02:46.590Z,5.00
2023-02-26T17:05:38.386Z,4.90
2023-02-26T17:08:34.282Z,4.90
2023-02-26T17:11:28.221Z,4.80
2023-02-26T17:14:25.367Z,4.80
2023-02-26T17:17:14.740Z,4.80
2023-02-26T17:20:05.206Z,4.70
2023-02-26T17:22:54.625Z,4.70
2023-02-26T17:25:47.429Z,4.70
2023-02-26T17:28:41.506Z,4.70
2023-02-26T17:31:30.871Z,4.70
2023-02-26T17:34:21.228Z,4.60
2023-02-26T17:37:12.113Z,4.70
2023-02-26T17:40:02.094Z,4.60
2023-02-26T17:42:53.374Z,4.60
2023-02-26T17:45:43.180Z,4.60
2023-02-26T17:48:32.538Z,4.50
2023-02-26T17:51:21.877Z,4.50
2023-02-26T17:54:11.212Z,4.50
2023-02-26T17:57:00.641Z,4.50
2023-02-26T17:59:51.522Z,4.50
2023-02-26T18:02:40.812Z,4.40
2023-02-26T18:05:32.859Z,4.40
2023-02-26T18:08:26.513Z,4.40
2023-02-26T18:11:17.903Z,4.30
2023-02-26T18:14:07.584Z,4.30
2023-02-26T18:16:58.439Z,4.30
2023-02-26T18:19:49.496Z,4.30
2023-02-26T18:22:38.768Z,4.30
2023-02-26T18:25:28.964Z,4.30
2023-02-26T18:28:21.673Z,4.40
2023-02-26T18:31:11.147Z,4.40
2023-02-26T18:34:02.611Z,4.30
2023-02-26T18:36:52.044Z,4.40
2023-02-26T18:39:41.487Z,4.40
2023-02-26T18:42:32.664Z,4.30
2023-02-26T18:45:23.644Z,4.40
2023-02-26T18:48:15.924Z,4.40
2023-02-26T18:51:07.170Z,4.40
2023-02-26T18:53:56.464Z,4.40
2023-02-26T18:56:47.108Z,4.30
2023-02-26T18:59:36.741Z,4.30
2023-02-26T19:02:27.543Z,4.30
2023-02-26T19:05:18.597Z,4.30
2023-02-26T19:08:09.413Z,4.30
2023-02-26T19:10:59.334Z,4.30
2023-02-26T19:13:52.502Z,4.20
2023-02-26T19:16:43.687Z,4.20
2023-02-26T19:19:33.039Z,4.20
2023-02-26T19:22:22.455Z,4.20
2023-02-26T19:25:13.880Z,4.20
2023-02-26T19:28:03.765Z,4.20
2023-02-26T19:30:55.912Z,4.20
2023-02-26T19:33:45.293Z,4.20
2023-02-26T19:36:34.750Z,4.10
2023-02-26T19:39:24.462Z,4.10
2023-02-26T19:42:15.540Z,4.10
2023-02-26T19:45:05.878Z,4.10
2023-02-26T19:47:55.215Z,4.10
2023-02-26T19:50:44.609Z,4.10
2023-02-26T19:53:34.914Z,4.00
2023-02-26T19:56:24.516Z,3.90
2023-02-26T19:59:15.206Z,3.90
2023-02-26T20:02:05.616Z,3.80
2023-02-26T20:04:55.006Z,3.70
2023-02-26T20:07:45.751Z,3.60
2023-02-26T20:10:35.229Z,3.50
2023-02-26T20:13:29.609Z,3.40
2023-02-26T20:16:20.506Z,3.30
2023-02-26T20:19:10.120Z,3.20
2023-02-26T20:21:59.445Z,3.10
2023-02-26T20:24:48.854Z,3.00
2023-02-26T20:27:39.164Z,2.90
2023-02-26T20:30:29.139Z,2.80
2023-02-26T20:33:21.104Z,2.80
2023-02-26T20:36:12.253Z,2.70
2023-02-26T20:39:02.508Z,2.70
2023-02-26T20:41:51.916Z,2.60
2023-02-26T20:44:41.203Z,2.60
2023-02-26T20:47:30.507Z,2.60
2023-02-26T20:50:21.432Z,2.70
2023-02-26T20:53:11.166Z,2.70
2023-02-26T20:56:00.593Z,2.80
2023-02-26T20:58:50.104Z,2.80
2023-02-26T21:01:39.539Z,2.80
2023-02-26T21:04:30.637Z,2.80
2023-02-26T21:07:22.773Z,2.80
2023-02-26T21:10:15.752Z,2.80
2023-02-26T21:13:05.147Z,2.80
2023-02-26T21:15:54.651Z,2.80
2023-02-26T21:18:43.927Z,2.80
2023-02-26T21:21:33.691Z,2.90
2023-02-26T21:24:24.855Z,2.90
2023-02-26T21:27:16.681Z,2.90
2023-02-26T21:30:08.222Z,3.00
2023-02-26T21:32:58.099Z,3.00
2023-02-26T21:35:51.154Z,3.00
2023-02-26T21:38:40.602Z,3.00
2023-02-26T21:41:31.385Z,3.10
2023-02-26T21:44:20.670Z,3.10
2023-02-26T21:47:11.230Z,3.10
2023-02-26T21:50:00.685Z,3.10
2023-02-26T21:52:50.278Z,3.10
2023-02-26T21:55:39.590Z,3.10
2023-02-26T21:58:30.839Z,3.20
2023-02-26T22:01:20.113Z,3.20
2023-02-26T22:04:09.431Z,3.20
2023-02-26T22:06:59.158Z,3.20
2023-02-26T22:09:49.116Z,3.20
2023-02-26T22:12:38.567Z,3.10
2023-02-26T22:15:29.324Z,3.10
2023-02-26T22:18:18.866Z,3.10
2023-02-26T22:21:08.536Z,3.00
2023-02-26T22:23:58.004Z,3.00
2023-02-26T22:26:49.333Z,2.90
2023-02-26T22:29:39.197Z,2.90
2023-02-26T22:32:29.974Z,2.80
2023-02-26T22:35:20.446Z,2.70
2023-02-26T22:38:09.755Z,2.60
2023-02-26T22:40:59.430Z,2.50
2023-02-26T22:43:49.151Z,2.50
2023-02-26T22:46:38.783Z,2.40
2023-02-26T22:49:29.484Z,2.30
2023-02-26T22:52:18.881Z,2.30
2023-02-26T22:55:10.307Z,2.20
2023-02-26T22:57:59.617Z,2.10
2023-02-26T23:00:48.982Z,2.10
2023-02-26T23:03:38.351Z,2.00
2023-02-26T23:06:29.064Z,2.00
2023-02-26T23:09:18.493Z,1.90
2023-02-26T23:12:08.109Z,1.80
2023-02-26T23:14:57.439Z,1.80
2023-02-26T23:17:46.868Z,1.70
2023-02-26T23:20:36.186Z,1.70
2023-02-26T23:23:26.915Z,1.60
2023-02-26T23:26:16.252Z,1.60
2023-02-26T23:29:06.369Z,1.50
2023-02-26T23:31:55.964Z,1.40
2023-02-26T23:34:45.375Z,1.30
2023-02-26T23:37:34.750Z,1.30
2023-02-26T23:40:25.472Z,1.20
2023-02-26T23:43:14.786Z,1.20
2023-02-26T23:46:05.047Z,1.10
2023-02-26T23:48:55.627Z,1.00
2023-02-26T23:51:45.033Z,1.00
2023-02-26T23:54:34.736Z,0.90
2023-02-26T23:57:25.706Z,0.80
